sensor_id;sensor_type;location;lat;lon;timestamp;temperature;humidity
12089;DHT22;6107;49.078;8.578;2023-05-10T00:02:24;13.90;99.90
12089;DHT22;6107;49.078;8.578;2023-05-10T00:04:50;13.90;99.90
12089;DHT22;6107;49.078;8.578;2023-05-10T00:07:16;13.80;99.90
12089;DHT22;6107;49.078;8.578;2023-05-10T00:09:43;13.90;99.90
12089;DHT22;6107;49.078;8.578;2023-05-10T00:12:08;13.80;99.90
12089;DHT22;6107;49.078;8.578;2023-05-10T00:14:34;13.90;99.90
12089;DHT22;6107;49.078;8.578;2023-05-10T00:17:00;13.70;99.90
12089;DHT22;6107;49.078;8.578;2023-05-10T00:19:25;14.00;99.90
12089;DHT22;6107;49.078;8.578;2023-05-10T00:21:51;13.80;99.90
12089;DHT22;6107;49.078;8.578;2023-05-10T00:24:16;13.90;99.90
12089;DHT22;6107;49.078;8.578;2023-05-10T00:26:42;13.90;99.90
12089;DHT22;6107;49.078;8.578;2023-05-10T00:29:07;13.80;99.90
12089;DHT22;6107;49.078;8.578;2023-05-10T00:31:33;13.80;99.90
12089;DHT22;6107;49.078;8.578;2023-05-10T00:33:58;13.80;99.90
12089;DHT22;6107;49.078;8.578;2023-05-10T00:36:24;13.70;99.90
12089;DHT22;6107;49.078;8.578;2023-05-10T00:38:50;13.80;99.90
12089;DHT22;6107;49.078;8.578;2023-05-10T00:41:15;13.70;99.90
12089;DHT22;6107;49.078;8.578;2023-05-10T00:43:41;13.60;99.90
12089;DHT22;6107;49.078;8.578;2023-05-10T00:46:06;13.60;99.90
12089;DHT22;6107;49.078;8.578;2023-05-10T00:48:32;13.60;99.90
12089;DHT22;6107;49.078;8.578;2023-05-10T00:50:58;13.70;99.90
12089;DHT22;6107;49.078;8.578;2023-05-10T00:53:24;13.60;99.90
12089;DHT22;6107;49.078;8.578;2023-05-10T00:55:50;13.60;99.90
12089;DHT22;6107;49.078;8.578;2023-05-10T00:58:16;13.60;99.90
12089;DHT22;6107;49.078;8.578;2023-05-10T01:00:42;13.70;99.90
12089;DHT22;6107;49.078;8.578;2023-05-10T01:03:11;13.80;99.90
12089;DHT22;6107;49.078;8.578;2023-05-10T01:05:37;13.80;99.90
12089;DHT22;6107;49.078;8.578;2023-05-10T01:08:02;13.70;99.90
12089;DHT22;6107;49.078;8.578;2023-05-10T01:10:28;13.60;99.90
12089;DHT22;6107;49.078;8.578;2023-05-10T01:12:54;13.50;99.90
12089;DHT22;6107;49.078;8.578;2023-05-10T01:15:20;13.60;99.90
12089;DHT22;6107;49.078;8.578;2023-05-10T01:17:47;13.60;99.90
12089;DHT22;6107;49.078;8.578;2023-05-10T01:20:14;13.60;99.90
12089;DHT22;6107;49.078;8.578;2023-05-10T01:28:39;13.60;99.90
12089;DHT22;6107;49.078;8.578;2023-05-10T01:34:23;13.70;99.90
12089;DHT22;6107;49.078;8.578;2023-05-10T01:37:01;13.60;99.90
12089;DHT22;6107;49.078;8.578;2023-05-10T01:42:17;13.60;99.90
12089;DHT22;6107;49.078;8.578;2023-05-10T01:45:08;13.60;99.90
12089;DHT22;6107;49.078;8.578;2023-05-10T01:47:42;13.60;99.90
12089;DHT22;6107;49.078;8.578;2023-05-10T01:50:15;13.60;99.90
12089;DHT22;6107;49.078;8.578;2023-05-10T01:52:44;13.50;99.90
12089;DHT22;6107;49.078;8.578;2023-05-10T01:55:15;13.40;99.90
12089;DHT22;6107;49.078;8.578;2023-05-10T01:57:43;13.60;99.90
12089;DHT22;6107;49.078;8.578;2023-05-10T02:00:13;13.60;99.90
12089;DHT22;6107;49.078;8.578;2023-05-10T02:02:42;13.60;99.90
12089;DHT22;6107;49.078;8.578;2023-05-10T02:05:12;13.60;99.90
12089;DHT22;6107;49.078;8.578;2023-05-10T02:07:39;13.60;99.90
12089;DHT22;6107;49.078;8.578;2023-05-10T02:10:06;13.70;99.90
12089;DHT22;6107;49.078;8.578;2023-05-10T02:12:36;13.60;99.90
12089;DHT22;6107;49.078;8.578;2023-05-10T02:15:05;13.50;99.90
12089;DHT22;6107;49.078;8.578;2023-05-10T02:17:32;13.60;99.90
12089;DHT22;6107;49.078;8.578;2023-05-10T02:19:59;13.60;99.90
12089;DHT22;6107;49.078;8.578;2023-05-10T02:22:27;13.60;99.90
12089;DHT22;6107;49.078;8.578;2023-05-10T02:24:54;13.70;99.90
12089;DHT22;6107;49.078;8.578;2023-05-10T02:27:22;13.60;99.90
12089;DHT22;6107;49.078;8.578;2023-05-10T02:29:49;13.50;99.90
12089;DHT22;6107;49.078;8.578;2023-05-10T02:32:16;13.60;99.90
12089;DHT22;6107;49.078;8.578;2023-05-10T02:34:43;13.60;99.90
12089;DHT22;6107;49.078;8.578;2023-05-10T02:37:14;13.60;99.90
12089;DHT22;6107;49.078;8.578;2023-05-10T02:39:41;13.60;99.90
12089;DHT22;6107;49.078;8.578;2023-05-10T02:42:12;13.60;99.90
12089;DHT22;6107;49.078;8.578;2023-05-10T02:44:41;13.60;99.90
12089;DHT22;6107;49.078;8.578;2023-05-10T02:47:07;13.60;99.90
12089;DHT22;6107;49.078;8.578;2023-05-10T02:49:32;13.80;99.90
12089;DHT22;6107;49.078;8.578;2023-05-10T02:52:00;13.80;99.90
12089;DHT22;6107;49.078;8.578;2023-05-10T02:54:30;13.70;99.90
12089;DHT22;6107;49.078;8.578;2023-05-10T02:56:58;13.60;99.90
12089;DHT22;6107;49.078;8.578;2023-05-10T02:59:28;13.60;99.90
12089;DHT22;6107;49.078;8.578;2023-05-10T03:01:53;13.50;99.90
12089;DHT22;6107;49.078;8.578;2023-05-10T03:04:19;13.70;99.90
12089;DHT22;6107;49.078;8.578;2023-05-10T03:06:45;13.50;99.90
12089;DHT22;6107;49.078;8.578;2023-05-10T03:09:13;13.70;99.90
12089;DHT22;6107;49.078;8.578;2023-05-10T03:12:03;13.80;99.90
12089;DHT22;6107;49.078;8.578;2023-05-10T03:14:49;13.70;99.90
12089;DHT22;6107;49.078;8.578;2023-05-10T03:17:29;13.70;99.90
12089;DHT22;6107;49.078;8.578;2023-05-10T03:19:58;13.60;99.90
12089;DHT22;6107;49.078;8.578;2023-05-10T03:22:31;13.50;99.90
12089;DHT22;6107;49.078;8.578;2023-05-10T03:24:57;13.40;99.90
12089;DHT22;6107;49.078;8.578;2023-05-10T03:27:25;13.50;99.90
12089;DHT22;6107;49.078;8.578;2023-05-10T03:29:53;13.60;99.90
12089;DHT22;6107;49.078;8.578;2023-05-10T03:32:19;13.60;99.90
12089;DHT22;6107;49.078;8.578;2023-05-10T03:34:44;13.60;99.90
12089;DHT22;6107;49.078;8.578;2023-05-10T03:37:10;13.60;99.90
12089;DHT22;6107;49.078;8.578;2023-05-10T03:39:35;13.60;99.90
12089;DHT22;6107;49.078;8.578;2023-05-10T03:42:01;13.70;99.90
12089;DHT22;6107;49.078;8.578;2023-05-10T03:44:26;13.60;99.90
12089;DHT22;6107;49.078;8.578;2023-05-10T03:46:52;13.60;99.90
12089;DHT22;6107;49.078;8.578;2023-05-10T03:49:18;13.60;99.90
12089;DHT22;6107;49.078;8.578;2023-05-10T03:51:43;13.50;99.90
12089;DHT22;6107;49.078;8.578;2023-05-10T03:54:09;13.40;99.90
12089;DHT22;6107;49.078;8.578;2023-05-10T03:56:34;13.50;99.90
12089;DHT22;6107;49.078;8.578;2023-05-10T03:59:00;13.50;99.90
12089;DHT22;6107;49.078;8.578;2023-05-10T04:01:25;13.40;99.90
12089;DHT22;6107;49.078;8.578;2023-05-10T04:03:51;13.40;99.90
12089;DHT22;6107;49.078;8.578;2023-05-10T04:06:17;13.40;99.90
12089;DHT22;6107;49.078;8.578;2023-05-10T04:08:42;13.40;99.90
12089;DHT22;6107;49.078;8.578;2023-05-10T04:11:08;13.40;99.90
12089;DHT22;6107;49.078;8.578;2023-05-10T04:13:35;13.40;99.90
12089;DHT22;6107;49.078;8.578;2023-05-10T04:16:00;13.40;99.90
12089;DHT22;6107;49.078;8.578;2023-05-10T04:18:29;13.30;99.90
12089;DHT22;6107;49.078;8.578;2023-05-10T04:20:55;13.30;99.90
12089;DHT22;6107;49.078;8.578;2023-05-10T04:23:21;13.40;99.90
12089;DHT22;6107;49.078;8.578;2023-05-10T04:25:46;13.50;99.90
12089;DHT22;6107;49.078;8.578;2023-05-10T04:28:12;13.40;99.90
12089;DHT22;6107;49.078;8.578;2023-05-10T04:30:38;13.40;99.90
12089;DHT22;6107;49.078;8.578;2023-05-10T04:33:03;13.30;99.90
12089;DHT22;6107;49.078;8.578;2023-05-10T04:35:29;13.20;99.90
12089;DHT22;6107;49.078;8.578;2023-05-10T04:37:55;13.40;99.90
12089;DHT22;6107;49.078;8.578;2023-05-10T04:40:20;13.40;99.90
12089;DHT22;6107;49.078;8.578;2023-05-10T04:42:46;13.40;99.90
12089;DHT22;6107;49.078;8.578;2023-05-10T04:45:12;13.50;99.90
12089;DHT22;6107;49.078;8.578;2023-05-10T04:47:39;13.20;99.90
12089;DHT22;6107;49.078;8.578;2023-05-10T04:50:05;13.40;99.90
12089;DHT22;6107;49.078;8.578;2023-05-10T04:52:31;13.40;99.90
12089;DHT22;6107;49.078;8.578;2023-05-10T04:54:57;13.40;99.90
12089;DHT22;6107;49.078;8.578;2023-05-10T04:57:22;13.40;99.90
12089;DHT22;6107;49.078;8.578;2023-05-10T04:59:48;13.50;99.90
12089;DHT22;6107;49.078;8.578;2023-05-10T05:02:16;13.50;99.90
12089;DHT22;6107;49.078;8.578;2023-05-10T05:04:41;13.50;99.90
12089;DHT22;6107;49.078;8.578;2023-05-10T05:07:07;13.50;99.90
12089;DHT22;6107;49.078;8.578;2023-05-10T05:09:32;13.60;99.90
12089;DHT22;6107;49.078;8.578;2023-05-10T05:11:58;13.50;99.90
12089;DHT22;6107;49.078;8.578;2023-05-10T05:14:24;13.70;99.90
12089;DHT22;6107;49.078;8.578;2023-05-10T05:16:52;13.60;99.90
12089;DHT22;6107;49.078;8.578;2023-05-10T05:19:18;13.70;99.90
12089;DHT22;6107;49.078;8.578;2023-05-10T05:21:43;13.60;99.90
12089;DHT22;6107;49.078;8.578;2023-05-10T05:24:09;13.60;99.90
12089;DHT22;6107;49.078;8.578;2023-05-10T05:26:36;13.60;99.90
12089;DHT22;6107;49.078;8.578;2023-05-10T05:29:02;13.60;99.90
12089;DHT22;6107;49.078;8.578;2023-05-10T05:31:28;13.70;99.90
12089;DHT22;6107;49.078;8.578;2023-05-10T05:33:53;13.80;99.90
12089;DHT22;6107;49.078;8.578;2023-05-10T05:36:19;13.70;99.90
12089;DHT22;6107;49.078;8.578;2023-05-10T05:38:44;13.70;99.90
12089;DHT22;6107;49.078;8.578;2023-05-10T05:41:10;13.80;99.90
12089;DHT22;6107;49.078;8.578;2023-05-10T05:43:35;13.90;99.90
12089;DHT22;6107;49.078;8.578;2023-05-10T05:46:01;14.00;99.90
12089;DHT22;6107;49.078;8.578;2023-05-10T05:48:27;13.70;99.90
12089;DHT22;6107;49.078;8.578;2023-05-10T05:50:55;13.70;99.90
12089;DHT22;6107;49.078;8.578;2023-05-10T05:53:22;13.80;99.90
12089;DHT22;6107;49.078;8.578;2023-05-10T05:56:05;13.70;99.90
12089;DHT22;6107;49.078;8.578;2023-05-10T05:58:31;13.80;99.90
12089;DHT22;6107;49.078;8.578;2023-05-10T06:00:57;13.90;99.90
12089;DHT22;6107;49.078;8.578;2023-05-10T06:03:22;13.80;99.90
12089;DHT22;6107;49.078;8.578;2023-05-10T06:05:48;13.70;99.90
12089;DHT22;6107;49.078;8.578;2023-05-10T06:08:13;13.90;99.90
12089;DHT22;6107;49.078;8.578;2023-05-10T06:10:39;13.70;99.90
12089;DHT22;6107;49.078;8.578;2023-05-10T06:13:04;13.90;99.90
12089;DHT22;6107;49.078;8.578;2023-05-10T06:15:30;13.90;99.90
12089;DHT22;6107;49.078;8.578;2023-05-10T06:17:56;14.10;99.90
12089;DHT22;6107;49.078;8.578;2023-05-10T06:20:22;14.00;99.90
12089;DHT22;6107;49.078;8.578;2023-05-10T06:22:48;13.90;99.90
12089;DHT22;6107;49.078;8.578;2023-05-10T06:25:13;14.10;99.90
12089;DHT22;6107;49.078;8.578;2023-05-10T06:27:40;14.20;99.90
12089;DHT22;6107;49.078;8.578;2023-05-10T06:30:06;14.20;99.90
12089;DHT22;6107;49.078;8.578;2023-05-10T06:32:31;14.10;99.90
12089;DHT22;6107;49.078;8.578;2023-05-10T06:34:57;14.30;99.90
12089;DHT22;6107;49.078;8.578;2023-05-10T06:37:22;13.90;99.90
12089;DHT22;6107;49.078;8.578;2023-05-10T06:39:48;14.10;99.90
12089;DHT22;6107;49.078;8.578;2023-05-10T06:42:14;14.40;99.90
12089;DHT22;6107;49.078;8.578;2023-05-10T06:44:39;14.40;99.90
12089;DHT22;6107;49.078;8.578;2023-05-10T06:47:05;14.40;99.90
12089;DHT22;6107;49.078;8.578;2023-05-10T06:49:30;14.10;99.90
12089;DHT22;6107;49.078;8.578;2023-05-10T06:51:56;14.50;99.90
12089;DHT22;6107;49.078;8.578;2023-05-10T06:54:21;14.40;99.90
12089;DHT22;6107;49.078;8.578;2023-05-10T06:56:48;14.70;99.90
12089;DHT22;6107;49.078;8.578;2023-05-10T06:59:14;14.40;99.90
12089;DHT22;6107;49.078;8.578;2023-05-10T07:01:40;14.40;99.90
12089;DHT22;6107;49.078;8.578;2023-05-10T07:04:06;14.10;99.90
12089;DHT22;6107;49.078;8.578;2023-05-10T07:06:32;14.60;99.90
12089;DHT22;6107;49.078;8.578;2023-05-10T07:08:58;14.50;99.90
12089;DHT22;6107;49.078;8.578;2023-05-10T07:11:24;14.20;99.90
12089;DHT22;6107;49.078;8.578;2023-05-10T07:13:49;14.40;99.90
12089;DHT22;6107;49.078;8.578;2023-05-10T07:16:15;14.70;99.90
12089;DHT22;6107;49.078;8.578;2023-05-10T07:18:41;14.70;99.90
12089;DHT22;6107;49.078;8.578;2023-05-10T07:21:06;14.60;99.90
12089;DHT22;6107;49.078;8.578;2023-05-10T07:23:32;14.60;99.90
12089;DHT22;6107;49.078;8.578;2023-05-10T07:25:57;14.70;99.90
12089;DHT22;6107;49.078;8.578;2023-05-10T07:28:23;14.60;99.90
12089;DHT22;6107;49.078;8.578;2023-05-10T07:30:51;14.70;99.90
12089;DHT22;6107;49.078;8.578;2023-05-10T07:33:17;14.50;99.90
12089;DHT22;6107;49.078;8.578;2023-05-10T07:35:43;14.40;99.90
12089;DHT22;6107;49.078;8.578;2023-05-10T07:38:08;14.40;99.90
12089;DHT22;6107;49.078;8.578;2023-05-10T07:40:36;14.30;99.90
12089;DHT22;6107;49.078;8.578;2023-05-10T07:43:02;14.30;99.90
12089;DHT22;6107;49.078;8.578;2023-05-10T07:45:28;14.30;99.90
12089;DHT22;6107;49.078;8.578;2023-05-10T07:47:53;14.50;99.90
12089;DHT22;6107;49.078;8.578;2023-05-10T07:50:19;14.50;99.90
12089;DHT22;6107;49.078;8.578;2023-05-10T07:52:46;14.40;99.90
12089;DHT22;6107;49.078;8.578;2023-05-10T07:55:12;14.40;99.90
12089;DHT22;6107;49.078;8.578;2023-05-10T07:57:38;14.50;99.90
12089;DHT22;6107;49.078;8.578;2023-05-10T08:00:03;14.40;99.90
12089;DHT22;6107;49.078;8.578;2023-05-10T08:02:29;14.50;99.90
12089;DHT22;6107;49.078;8.578;2023-05-10T08:04:55;14.70;99.90
12089;DHT22;6107;49.078;8.578;2023-05-10T08:07:21;14.60;99.90
12089;DHT22;6107;49.078;8.578;2023-05-10T08:09:47;14.70;99.90
12089;DHT22;6107;49.078;8.578;2023-05-10T08:12:12;14.70;99.90
12089;DHT22;6107;49.078;8.578;2023-05-10T08:14:38;14.70;99.90
12089;DHT22;6107;49.078;8.578;2023-05-10T08:17:04;14.90;99.90
12089;DHT22;6107;49.078;8.578;2023-05-10T08:19:29;14.90;99.90
12089;DHT22;6107;49.078;8.578;2023-05-10T08:21:55;14.80;99.90
12089;DHT22;6107;49.078;8.578;2023-05-10T08:24:21;14.70;99.90
12089;DHT22;6107;49.078;8.578;2023-05-10T08:26:47;14.60;99.90
12089;DHT22;6107;49.078;8.578;2023-05-10T08:29:15;14.70;99.90
12089;DHT22;6107;49.078;8.578;2023-05-10T08:31:41;14.90;99.90
12089;DHT22;6107;49.078;8.578;2023-05-10T08:34:07;15.00;99.90
12089;DHT22;6107;49.078;8.578;2023-05-10T08:36:32;15.00;99.90
12089;DHT22;6107;49.078;8.578;2023-05-10T08:38:58;15.10;99.90
12089;DHT22;6107;49.078;8.578;2023-05-10T08:41:24;15.00;99.90
12089;DHT22;6107;49.078;8.578;2023-05-10T08:44:05;15.10;99.90
12089;DHT22;6107;49.078;8.578;2023-05-10T08:46:33;15.20;99.90
12089;DHT22;6107;49.078;8.578;2023-05-10T08:49:02;15.20;99.90
12089;DHT22;6107;49.078;8.578;2023-05-10T08:51:32;15.00;99.90
12089;DHT22;6107;49.078;8.578;2023-05-10T08:54:00;15.10;99.90
12089;DHT22;6107;49.078;8.578;2023-05-10T08:56:29;15.10;99.90
12089;DHT22;6107;49.078;8.578;2023-05-10T08:58:56;15.20;99.90
12089;DHT22;6107;49.078;8.578;2023-05-10T09:01:21;15.10;99.90
12089;DHT22;6107;49.078;8.578;2023-05-10T09:03:47;15.00;99.90
12089;DHT22;6107;49.078;8.578;2023-05-10T09:06:13;14.80;99.90
12089;DHT22;6107;49.078;8.578;2023-05-10T09:08:41;14.80;99.90
12089;DHT22;6107;49.078;8.578;2023-05-10T09:11:07;14.80;99.90
12089;DHT22;6107;49.078;8.578;2023-05-10T09:13:35;14.80;99.90
12089;DHT22;6107;49.078;8.578;2023-05-10T09:16:01;14.80;99.90
12089;DHT22;6107;49.078;8.578;2023-05-10T09:18:27;14.60;99.90
12089;DHT22;6107;49.078;8.578;2023-05-10T09:20:53;14.60;99.90
12089;DHT22;6107;49.078;8.578;2023-05-10T09:23:19;14.60;99.90
12089;DHT22;6107;49.078;8.578;2023-05-10T09:25:45;14.50;99.90
12089;DHT22;6107;49.078;8.578;2023-05-10T09:28:11;14.70;99.90
12089;DHT22;6107;49.078;8.578;2023-05-10T09:30:37;14.80;99.90
12089;DHT22;6107;49.078;8.578;2023-05-10T09:33:03;14.80;99.90
12089;DHT22;6107;49.078;8.578;2023-05-10T09:35:30;14.90;99.90
12089;DHT22;6107;49.078;8.578;2023-05-10T09:37:58;14.90;99.90
12089;DHT22;6107;49.078;8.578;2023-05-10T09:40:25;15.00;99.90
12089;DHT22;6107;49.078;8.578;2023-05-10T09:42:53;15.00;99.90
12089;DHT22;6107;49.078;8.578;2023-05-10T09:45:20;15.10;99.90
12089;DHT22;6107;49.078;8.578;2023-05-10T09:47:46;15.30;99.90
12089;DHT22;6107;49.078;8.578;2023-05-10T09:50:11;15.20;99.90
12089;DHT22;6107;49.078;8.578;2023-05-10T09:52:50;15.20;99.90
12089;DHT22;6107;49.078;8.578;2023-05-10T09:55:23;15.60;99.90
12089;DHT22;6107;49.078;8.578;2023-05-10T09:57:59;15.40;99.90
12089;DHT22;6107;49.078;8.578;2023-05-10T10:00:24;15.00;99.90
12089;DHT22;6107;49.078;8.578;2023-05-10T10:02:57;15.00;99.90
12089;DHT22;6107;49.078;8.578;2023-05-10T10:05:34;15.10;99.90
12089;DHT22;6107;49.078;8.578;2023-05-10T10:08:04;15.10;99.90
12089;DHT22;6107;49.078;8.578;2023-05-10T10:10:31;14.90;99.90
12089;DHT22;6107;49.078;8.578;2023-05-10T10:12:57;15.00;99.90
12089;DHT22;6107;49.078;8.578;2023-05-10T10:15:24;15.00;99.90
12089;DHT22;6107;49.078;8.578;2023-05-10T10:17:51;15.00;99.90
12089;DHT22;6107;49.078;8.578;2023-05-10T10:20:17;15.20;99.90
12089;DHT22;6107;49.078;8.578;2023-05-10T10:22:43;15.30;99.90
12089;DHT22;6107;49.078;8.578;2023-05-10T10:25:10;15.40;99.90
12089;DHT22;6107;49.078;8.578;2023-05-10T10:27:49;15.60;99.90
12089;DHT22;6107;49.078;8.578;2023-05-10T10:30:43;15.60;99.90
12089;DHT22;6107;49.078;8.578;2023-05-10T10:35:49;15.70;99.90
12089;DHT22;6107;49.078;8.578;2023-05-10T10:38:15;15.80;99.90
12089;DHT22;6107;49.078;8.578;2023-05-10T10:40:42;15.90;99.90
12089;DHT22;6107;49.078;8.578;2023-05-10T10:43:27;15.90;99.90
12089;DHT22;6107;49.078;8.578;2023-05-10T10:48:39;15.70;99.90
12089;DHT22;6107;49.078;8.578;2023-05-10T10:51:04;15.70;99.90
12089;DHT22;6107;49.078;8.578;2023-05-10T10:53:30;15.70;99.90
12089;DHT22;6107;49.078;8.578;2023-05-10T10:56:06;15.80;99.90
12089;DHT22;6107;49.078;8.578;2023-05-10T10:58:33;15.60;99.90
12089;DHT22;6107;49.078;8.578;2023-05-10T11:01:16;15.90;99.90
12089;DHT22;6107;49.078;8.578;2023-05-10T11:04:16;15.90;99.90
12089;DHT22;6107;49.078;8.578;2023-05-10T11:06:40;15.80;99.90
12089;DHT22;6107;49.078;8.578;2023-05-10T11:09:09;15.90;99.90
12089;DHT22;6107;49.078;8.578;2023-05-10T11:11:35;16.00;99.90
12089;DHT22;6107;49.078;8.578;2023-05-10T11:14:07;15.90;99.90
12089;DHT22;6107;49.078;8.578;2023-05-10T11:16:43;15.90;99.90
12089;DHT22;6107;49.078;8.578;2023-05-10T11:19:16;16.00;99.90
12089;DHT22;6107;49.078;8.578;2023-05-10T11:21:50;15.90;99.90
12089;DHT22;6107;49.078;8.578;2023-05-10T11:24:22;15.90;99.90
12089;DHT22;6107;49.078;8.578;2023-05-10T11:26:50;15.80;99.90
12089;DHT22;6107;49.078;8.578;2023-05-10T11:29:16;16.20;99.90
12089;DHT22;6107;49.078;8.578;2023-05-10T11:31:43;16.60;99.90
12089;DHT22;6107;49.078;8.578;2023-05-10T11:34:10;17.00;99.90
12089;DHT22;6107;49.078;8.578;2023-05-10T11:36:36;17.00;99.90
12089;DHT22;6107;49.078;8.578;2023-05-10T11:39:02;17.20;99.90
12089;DHT22;6107;49.078;8.578;2023-05-10T11:41:29;17.40;99.90
12089;DHT22;6107;49.078;8.578;2023-05-10T11:43:55;17.60;99.90
12089;DHT22;6107;49.078;8.578;2023-05-10T11:46:25;17.70;99.90
12089;DHT22;6107;49.078;8.578;2023-05-10T11:48:58;17.70;99.90
12089;DHT22;6107;49.078;8.578;2023-05-10T11:51:26;17.50;99.90
12089;DHT22;6107;49.078;8.578;2023-05-10T11:53:56;17.50;99.90
12089;DHT22;6107;49.078;8.578;2023-05-10T11:56:22;17.20;99.90
12089;DHT22;6107;49.078;8.578;2023-05-10T11:58:56;17.30;99.90
12089;DHT22;6107;49.078;8.578;2023-05-10T12:01:22;17.60;99.90
12089;DHT22;6107;49.078;8.578;2023-05-10T12:03:49;17.80;99.90
12089;DHT22;6107;49.078;8.578;2023-05-10T12:06:15;17.60;99.90
12089;DHT22;6107;49.078;8.578;2023-05-10T12:08:45;17.50;99.90
12089;DHT22;6107;49.078;8.578;2023-05-10T12:11:12;17.10;99.90
12089;DHT22;6107;49.078;8.578;2023-05-10T12:13:41;17.20;99.90
12089;DHT22;6107;49.078;8.578;2023-05-10T12:16:20;16.80;99.90
12089;DHT22;6107;49.078;8.578;2023-05-10T12:18:54;16.70;99.90
12089;DHT22;6107;49.078;8.578;2023-05-10T12:21:21;16.70;99.90
12089;DHT22;6107;49.078;8.578;2023-05-10T12:23:50;16.80;99.90
12089;DHT22;6107;49.078;8.578;2023-05-10T12:26:15;16.80;99.90
12089;DHT22;6107;49.078;8.578;2023-05-10T12:28:41;16.80;99.90
12089;DHT22;6107;49.078;8.578;2023-05-10T12:31:07;16.70;99.90
12089;DHT22;6107;49.078;8.578;2023-05-10T12:33:41;16.70;99.90
12089;DHT22;6107;49.078;8.578;2023-05-10T12:36:09;16.90;99.90
12089;DHT22;6107;49.078;8.578;2023-05-10T12:38:42;16.90;99.90
12089;DHT22;6107;49.078;8.578;2023-05-10T12:41:17;16.80;99.90
12089;DHT22;6107;49.078;8.578;2023-05-10T12:43:43;17.00;99.90
12089;DHT22;6107;49.078;8.578;2023-05-10T12:46:16;16.90;99.90
12089;DHT22;6107;49.078;8.578;2023-05-10T12:48:43;17.10;99.90
12089;DHT22;6107;49.078;8.578;2023-05-10T12:51:09;17.30;99.90
12089;DHT22;6107;49.078;8.578;2023-05-10T12:53:38;17.70;99.90
12089;DHT22;6107;49.078;8.578;2023-05-10T12:56:04;17.30;99.90
12089;DHT22;6107;49.078;8.578;2023-05-10T12:58:30;17.40;99.90
12089;DHT22;6107;49.078;8.578;2023-05-10T13:00:55;17.70;99.90
12089;DHT22;6107;49.078;8.578;2023-05-10T13:03:22;17.50;99.90
12089;DHT22;6107;49.078;8.578;2023-05-10T13:05:47;17.60;99.90
12089;DHT22;6107;49.078;8.578;2023-05-10T13:08:13;17.70;99.90
12089;DHT22;6107;49.078;8.578;2023-05-10T13:10:38;17.70;99.90
12089;DHT22;6107;49.078;8.578;2023-05-10T13:13:04;17.60;99.90
12089;DHT22;6107;49.078;8.578;2023-05-10T13:15:30;17.60;99.90
12089;DHT22;6107;49.078;8.578;2023-05-10T13:17:56;17.70;99.90
12089;DHT22;6107;49.078;8.578;2023-05-10T13:20:21;18.10;99.90
12089;DHT22;6107;49.078;8.578;2023-05-10T13:22:47;18.30;99.90
12089;DHT22;6107;49.078;8.578;2023-05-10T13:25:13;18.40;99.90
12089;DHT22;6107;49.078;8.578;2023-05-10T13:27:41;18.50;99.90
12089;DHT22;6107;49.078;8.578;2023-05-10T13:30:10;18.20;99.90
12089;DHT22;6107;49.078;8.578;2023-05-10T13:32:36;18.50;99.90
12089;DHT22;6107;49.078;8.578;2023-05-10T13:35:02;18.50;99.90
12089;DHT22;6107;49.078;8.578;2023-05-10T13:37:31;18.20;99.90
12089;DHT22;6107;49.078;8.578;2023-05-10T13:39:57;18.50;99.90
12089;DHT22;6107;49.078;8.578;2023-05-10T13:42:23;18.50;99.90
12089;DHT22;6107;49.078;8.578;2023-05-10T13:44:49;18.50;99.90
12089;DHT22;6107;49.078;8.578;2023-05-10T13:47:15;18.30;99.90
12089;DHT22;6107;49.078;8.578;2023-05-10T13:49:40;18.70;99.90
12089;DHT22;6107;49.078;8.578;2023-05-10T13:52:06;18.50;99.90
12089;DHT22;6107;49.078;8.578;2023-05-10T13:54:35;18.10;99.90
12089;DHT22;6107;49.078;8.578;2023-05-10T13:57:01;18.30;99.90
12089;DHT22;6107;49.078;8.578;2023-05-10T13:59:26;18.20;99.90
12089;DHT22;6107;49.078;8.578;2023-05-10T14:01:52;18.10;99.90
12089;DHT22;6107;49.078;8.578;2023-05-10T14:04:17;18.30;99.90
12089;DHT22;6107;49.078;8.578;2023-05-10T14:06:43;18.40;99.90
12089;DHT22;6107;49.078;8.578;2023-05-10T14:09:08;18.60;99.90
12089;DHT22;6107;49.078;8.578;2023-05-10T14:11:34;18.40;99.90
12089;DHT22;6107;49.078;8.578;2023-05-10T14:14:00;18.80;99.90
12089;DHT22;6107;49.078;8.578;2023-05-10T14:16:25;18.40;99.90
12089;DHT22;6107;49.078;8.578;2023-05-10T14:18:52;18.50;99.90
12089;DHT22;6107;49.078;8.578;2023-05-10T14:21:17;18.60;99.90
12089;DHT22;6107;49.078;8.578;2023-05-10T14:23:43;18.50;99.90
12089;DHT22;6107;49.078;8.578;2023-05-10T14:26:08;18.80;99.90
12089;DHT22;6107;49.078;8.578;2023-05-10T14:28:34;18.50;99.90
12089;DHT22;6107;49.078;8.578;2023-05-10T14:30:59;18.20;99.90
12089;DHT22;6107;49.078;8.578;2023-05-10T14:33:25;18.20;99.90
12089;DHT22;6107;49.078;8.578;2023-05-10T14:35:50;18.30;99.90
12089;DHT22;6107;49.078;8.578;2023-05-10T14:38:16;18.20;99.90
12089;DHT22;6107;49.078;8.578;2023-05-10T14:40:42;18.30;99.90
12089;DHT22;6107;49.078;8.578;2023-05-10T14:43:08;18.20;99.90
12089;DHT22;6107;49.078;8.578;2023-05-10T14:45:33;18.40;99.90
12089;DHT22;6107;49.078;8.578;2023-05-10T14:48:00;18.60;99.90
12089;DHT22;6107;49.078;8.578;2023-05-10T14:50:25;18.50;99.90
12089;DHT22;6107;49.078;8.578;2023-05-10T14:52:51;18.00;99.90
12089;DHT22;6107;49.078;8.578;2023-05-10T14:55:16;18.30;99.90
12089;DHT22;6107;49.078;8.578;2023-05-10T14:57:42;18.40;99.90
12089;DHT22;6107;49.078;8.578;2023-05-10T15:00:09;18.10;99.90
12089;DHT22;6107;49.078;8.578;2023-05-10T15:02:35;18.00;99.90
12089;DHT22;6107;49.078;8.578;2023-05-10T15:05:01;17.60;99.90
12089;DHT22;6107;49.078;8.578;2023-05-10T15:07:26;17.80;99.90
12089;DHT22;6107;49.078;8.578;2023-05-10T15:09:52;18.10;99.90
12089;DHT22;6107;49.078;8.578;2023-05-10T15:12:18;18.50;99.90
12089;DHT22;6107;49.078;8.578;2023-05-10T15:14:43;18.50;99.90
12089;DHT22;6107;49.078;8.578;2023-05-10T15:17:09;18.60;99.90
12089;DHT22;6107;49.078;8.578;2023-05-10T15:19:35;18.40;99.90
12089;DHT22;6107;49.078;8.578;2023-05-10T15:22:01;18.20;99.90
12089;DHT22;6107;49.078;8.578;2023-05-10T15:24:27;18.30;99.90
12089;DHT22;6107;49.078;8.578;2023-05-10T15:26:53;18.40;99.90
12089;DHT22;6107;49.078;8.578;2023-05-10T15:29:19;18.50;99.90
12089;DHT22;6107;49.078;8.578;2023-05-10T15:31:46;18.30;99.90
12089;DHT22;6107;49.078;8.578;2023-05-10T15:34:13;18.30;99.90
12089;DHT22;6107;49.078;8.578;2023-05-10T15:36:38;18.20;99.90
12089;DHT22;6107;49.078;8.578;2023-05-10T15:39:04;18.10;99.90
12089;DHT22;6107;49.078;8.578;2023-05-10T15:41:29;18.20;99.90
12089;DHT22;6107;49.078;8.578;2023-05-10T15:43:55;18.00;99.90
12089;DHT22;6107;49.078;8.578;2023-05-10T15:46:21;18.20;99.90
12089;DHT22;6107;49.078;8.578;2023-05-10T15:48:46;18.40;99.90
12089;DHT22;6107;49.078;8.578;2023-05-10T15:51:12;18.30;99.90
12089;DHT22;6107;49.078;8.578;2023-05-10T15:53:38;18.10;99.90
12089;DHT22;6107;49.078;8.578;2023-05-10T15:56:03;18.20;99.90
12089;DHT22;6107;49.078;8.578;2023-05-10T15:58:29;18.50;99.90
12089;DHT22;6107;49.078;8.578;2023-05-10T16:00:55;18.90;99.90
12089;DHT22;6107;49.078;8.578;2023-05-10T16:03:22;18.70;99.90